x

Eel River - 17nm Wsw Of Eureka, Ca (46022) Wave Buoy

3:50am - Sat 21st Oct 2017 All times are PDT. -7 hours from GMT.

  • Sig Wave height 12.8ft
  • Swell Direction
  • Peak Period 14s
  • Average Period 10s
  • Wind
    11mph, 16mph gusts
  • Sea Temp 51°f
  • Air Temp 51°f
  • Sea Pressure 1020.4mb
  • Eel River - 17nm Wsw Of Eureka, Ca
  • Eel River - 17nm Wsw Of Eureka, Ca

More Historic Weather Station data

Upgrade to MSW Pro to gain access to the past 30 days of data for over 8000 Wavebouys and Weather Stations around the globe.

Join

Comparision Forecast

View Surf forecast
   
Sat 10/21 3:50am 13ft 14s 10s 11 16 mph 1020.4mb 51f 51f
2:50am 15ft 15s 10s 13 22 mph 1020.7mb 50f 50f
1:50am 16ft 15s 11s 13 18 mph 1020.9mb 50f 50f
12:50am 14ft 15s 10s 11 18 mph 1020.9mb 50f 50f
Fri 10/20 11:50pm 14.5ft 15s 10s 11 18 mph 1020.8mb 51f 50f
10:50pm 15ft 15s 10s 9 13 mph 1021.4mb 51f 51f
9:50pm 14.5ft 16s 10s 11 16 mph 1020.8mb 52f 52f
8:50pm 14ft 16s 10s 11 13 mph 1020.9mb 52f 52f
7:50pm 14.5ft 14s 10s 9 11 mph 1020.5mb 52f 52f
6:50pm 15.5ft 15s 11s 9 11 mph 1020.2mb 52f 52f
5:50pm 17ft 13s 11s 9 11 mph 1020.4mb 52f 52f
4:50pm 17ft 15s 11s 7 11 mph 1020mb 51f 52f
3:50pm 17ft 15s 11s 9 13 mph 1020.1mb 51f 52f
2:50pm 19ft 16s 11s 11 16 mph 1019.5mb 50f 52f
1:50pm 20ft 14s 11s 11 16 mph 1019.2mb 50f 52f
12:50pm 17ft 16s 11s 11 13 mph 1019.1mb 50f 51f
11:50am 19.5ft 17s 12s 11 13 mph 1018.6mb 50f 52f
10:50am 18.5ft 16s 12s 11 13 mph 1018mb 51f 52f
9:50am 16ft 16s 10s 9 13 mph 1017.4mb 50f 52f
6:50am 17ft 15s 10s 9 13 mph 1015.1mb 51f 51f
5:50am 19ft 17s 11s 9 13 mph 1014.8mb 51f 51f
4:50am 20.5ft 17s 12s 4 7 mph 1014.1mb 51f 51f
3:50am 17ft 17s 11s 9 20 mph 1013.3mb 52f 52f
2:50am 19ft 17s 12s 9 13 mph 1011.9mb 52f 52f
1:50am 17ft 19s 11s 9 11 mph 1011.1mb 52f 53f
12:50am 16.5ft 19s 12s 11 13 mph 1010.9mb 52f 53f
Thu 10/19 11:50pm 17ft 13s 12s 7 11 mph 1010.9mb 52f 52f
10:50pm 17.5ft 17s 12s 11 16 mph 1010.3mb 52f 52f
9:50pm 18.5ft 19s 13s 7 9 mph 1010mb 52f 52f
8:50pm 18.5ft 14s 13s 9 13 mph 1009.4mb 52f 51f
7:50pm 17.5ft 15s 12s 11 16 mph 1008.5mb 52f 51f
6:50pm 17.5ft 16s 12s 9 11 mph 1008.8mb 51f 51f
5:50pm 16.5ft 16s 11s 11 13 mph 1008.7mb 50f 52f
4:50pm 12ft 13s 9s 11 13 mph 1009.1mb 50f 53f
3:50pm 10.5ft 13s 7s 25 31 mph 1008.1mb 50f 53f
2:50pm 9.5ft 11s 6s 29 36 mph 1007.5mb 51f 53f
1:50pm 10ft 11s 6s 34 43 mph 1007.9mb 50f 54f
12:50pm 9ft 11s 7s 31 38 mph 1008.9mb 50f 55f
11:50am 8ft 11s 6s 29 38 mph 1010.1mb 50f 54f
10:50am 7ft 11s 7s 22 27 mph 1010.4mb 50f 53f
9:50am 6ft 10s 6s 18 22 mph 1010.9mb 50f 53f
7:50am 6ft 10s 7s 13 18 mph 1011.5mb 51f 52f
6:50am 5.5ft 16s 7s 11 13 mph 1011.8mb 51f 53f
5:50am 5.5ft 10s 7s 16 18 mph 1012.3mb 51f 52f
4:50am 5ft 10s 7s 18 22 mph 1012.8mb 51f 52f
3:50am 5ft 10s 7s 11 11 mph 1013.5mb 51f 52f
2:50am 5ft 9s 8s 9 11 mph 1013.5mb 51f 53f
1:50am 5ft 16s 8s 11 13 mph 1014.1mb 51f 53f
12:50am 4.5ft 9s 8s 11 16 mph 1014.4mb 51f 53f
Wed 10/18 11:50pm 4.5ft 16s 9s 9 9 mph 1015.1mb 51f 53f
10:50pm 4.5ft 10s 9s 11 16 mph 1015.1mb 51f 53f
9:50pm 5ft 10s 8s 7 9 mph 1014.9mb 51f 52f
8:50pm 5ft 11s 9s 7 9 mph 1015.4mb 51f 52f
7:50pm 6ft 10s 9s 9 9 mph 1016mb 52f 52f
6:50pm 5.5ft 9s 9s 4 7 mph 1016.5mb 51f 52f
5:50pm 6ft 11s 8s 4 7 mph 1016.6mb 52f 51f
4:50pm 6ft 11s 8s 4 4 mph 1017.1mb 51f 51f
3:50pm 6ft 10s 8s 4 7 mph 1017.2mb 52f 51f
2:50pm 5ft 11s 8s 2 4 mph 1017.7mb 51f 51f
1:50pm 6ft 10s 8s 2 4 mph 1018.2mb 51f 51f
12:50pm 6ft 11s 8s  -  2 mph 1018.6mb 51f 50f
11:50am 6ft 11s 8s  -  2 mph 1018.6mb 50f 49f
10:50am 6ft 11s 9s 2 4 mph 1018.5mb 50f 49f
9:50am 6ft 11s 9s 4 4 mph 1018.5mb 49f 49f
8:50am 6.5ft 11s 9s 2 4 mph 1018.5mb 49f 48f
7:50am 7ft 10s 9s 2 4 mph 1018.2mb 50f 49f
6:50am 6ft 10s 8s 4 7 mph 1018.2mb 50f 48f
5:50am 7ft 12s 9s 7 9 mph 1018.1mb 50f 49f
4:50am 8ft 11s 9s 9 11 mph 1018.3mb 50f 50f
3:50am 7ft 11s 9s 9 11 mph 1018.7mb 50f 51f
2:50am 7.5ft 11s 9s 13 16 mph 1018.6mb 51f 51f
1:50am 7ft 12s 9s 11 13 mph 1018.9mb 51f 51f
12:50am 7ft 11s 9s 9 11 mph 1019.2mb 50f 52f
Tue 10/17 11:50pm 6.5ft 11s 9s 9 11 mph 1019.8mb 51f 52f
10:50pm 7ft 12s 9s 2 4 mph 1020.3mb 51f 51f
9:50pm 6.5ft 12s 9s 7 7 mph 1020mb 51f 52f
8:50pm 5.5ft 11s 9s 9 11 mph 1020.2mb 51f 52f
7:50pm 7ft 12s 9s 7 7 mph 1020.3mb 51f 51f
6:50pm 7ft 12s 9s 2 4 mph 1020mb 51f 51f
5:50pm 6ft 13s 9s 2 4 mph 1020mb 51f 51f
4:50pm 5.5ft 13s 8s 4 7 mph 1020.3mb 51f 50f
3:50pm 5.5ft 12s 8s 4 7 mph 1020.7mb 51f 50f
2:50pm 6ft 13s 8s 7 7 mph 1021mb 51f 50f
1:50pm 6ft 14s 7s 9 11 mph 1021mb 51f 50f
12:50pm 6ft 10s 7s 13 16 mph 1021.6mb 51f 50f